createdAt,value
2023-05-08T00:01:16.929Z,98819.31
2023-05-08T00:04:21.305Z,98819.75
2023-05-08T00:07:24.250Z,98818.59
2023-05-08T00:10:26.771Z,98821.81
2023-05-08T00:13:29.326Z,98817.19
2023-05-08T00:16:32.784Z,98825.44
2023-05-08T00:19:36.716Z,98822.00
2023-05-08T00:22:39.263Z,98828.41
2023-05-08T00:25:41.889Z,98822.34
2023-05-08T00:28:44.640Z,98823.84
2023-05-08T00:31:47.171Z,98814.69
2023-05-08T00:34:51.310Z,98824.09
2023-05-08T00:37:53.787Z,98821.03
2023-05-08T00:40:56.285Z,98820.28
2023-05-08T00:43:58.814Z,98827.41
2023-05-08T00:47:01.760Z,98820.41
2023-05-08T00:50:06.796Z,98832.28
2023-05-08T00:53:09.639Z,98825.97
2023-05-08T00:56:14.963Z,98829.81
2023-05-08T00:59:17.790Z,98827.41
2023-05-08T01:02:20.954Z,98833.38
2023-05-08T01:05:25.249Z,98833.03
2023-05-08T01:08:27.823Z,98834.97
2023-05-08T01:11:33.833Z,98840.94
2023-05-08T01:14:43.258Z,98840.03
2023-05-08T01:17:55.146Z,98842.53
2023-05-08T01:21:03.627Z,98842.53
2023-05-08T01:24:22.780Z,98844.94
2023-05-08T01:27:46.699Z,98844.59
2023-05-08T01:31:06.650Z,98840.22
2023-05-08T01:34:13.326Z,98842.53
2023-05-08T01:37:17.044Z,98848.94
2023-05-08T01:40:35.240Z,98843.25
2023-05-08T01:43:43.042Z,98854.63
2023-05-08T01:46:49.713Z,98849.63
2023-05-08T01:50:00.247Z,98862.19
2023-05-08T01:53:07.341Z,98849.09
2023-05-08T01:56:12.435Z,98850.19
2023-05-08T01:59:18.387Z,98863.59
2023-05-08T02:02:21.818Z,98852.69
2023-05-08T02:05:25.907Z,98857.03
2023-05-08T02:08:29.428Z,98853.47
2023-05-08T02:11:32.915Z,98859.78
2023-05-08T02:14:37.399Z,98856.78
2023-05-08T02:17:41.023Z,98859.59
2023-05-08T02:20:44.959Z,98861.56
2023-05-08T02:23:48.249Z,98852.31
2023-05-08T02:26:50.832Z,98858.88
2023-05-08T02:29:54.574Z,98862.63
2023-05-08T02:33:00.646Z,98867.25
2023-05-08T02:36:05.640Z,98864.03
2023-05-08T02:39:09.179Z,98871.59
2023-05-08T02:42:11.738Z,98864.22
2023-05-08T02:45:14.541Z,98871.16
2023-05-08T02:48:22.185Z,98869.31
2023-05-08T02:51:28.282Z,98865.50
2023-05-08T02:54:37.955Z,98870.56
2023-05-08T02:57:46.752Z,98867.97
2023-05-08T03:00:54.180Z,98870.66
2023-05-08T03:04:03.560Z,98860.31
2023-05-08T03:07:07.545Z,98860.81
2023-05-08T03:10:13.090Z,98864.84
2023-05-08T03:13:16.179Z,98861.47
2023-05-08T03:16:21.726Z,98862.38
2023-05-08T03:19:28.649Z,98857.13
2023-05-08T03:22:33.790Z,98869.00
2023-05-08T03:25:38.527Z,98870.19
2023-05-08T03:28:41.298Z,98855.69
2023-05-08T03:31:45.624Z,98866.25
2023-05-08T03:34:49.174Z,98867.25
2023-05-08T03:37:54.053Z,98864.84
2023-05-08T03:40:56.534Z,98871.84
2023-05-08T03:43:59.645Z,98861.97
2023-05-08T03:47:04.247Z,98865.44
2023-05-08T03:50:08.267Z,98871.28
2023-05-08T03:53:12.361Z,98873.69
2023-05-08T03:56:15.171Z,98870.03
2023-05-08T03:59:23.176Z,98871.78
2023-05-08T04:02:30.209Z,98872.31
2023-05-08T04:05:37.633Z,98868.13
2023-05-08T04:08:43.971Z,98870.66
2023-05-08T04:11:54.175Z,98869.56
2023-05-08T04:14:58.031Z,98876.41
2023-05-08T04:18:04.295Z,98877.56
2023-05-08T04:21:11.491Z,98886.47
2023-05-08T04:24:16.478Z,98895.38
2023-05-08T04:27:19.428Z,98888.25
2023-05-08T04:30:22.136Z,98897.06
2023-05-08T04:33:24.796Z,98894.84
2023-05-08T04:36:29.458Z,98899.72
2023-05-08T04:39:33.539Z,98906.16
2023-05-08T04:42:37.002Z,98903.50
2023-05-08T04:45:39.701Z,98905.88
2023-05-08T04:48:42.260Z,98907.59
2023-05-08T04:51:44.762Z,98908.91
2023-05-08T04:54:48.731Z,98902.31
2023-05-08T04:57:51.431Z,98906.06
2023-05-08T05:00:53.994Z,98914.88
2023-05-08T05:03:56.645Z,98910.22
2023-05-08T05:06:59.506Z,98914.66
2023-05-08T05:10:04.218Z,98910.03
2023-05-08T05:13:06.957Z,98911.28
2023-05-08T05:16:09.572Z,98917.59
2023-05-08T05:19:12.525Z,98918.41
2023-05-08T05:22:15.301Z,98923.38
2023-05-08T05:25:19.342Z,98921.53
2023-05-08T05:28:21.920Z,98928.84
2023-05-08T05:31:24.644Z,98923.25
2023-05-08T05:34:27.588Z,98934.97
2023-05-08T05:37:30.466Z,98928.22
2023-05-08T05:40:34.384Z,98936.28
2023-05-08T05:43:37.454Z,98941.63
2023-05-08T05:46:41.512Z,98941.47
2023-05-08T05:49:47.275Z,98936.91
2023-05-08T05:52:50.117Z,98940.94
2023-05-08T05:55:54.018Z,98940.22
2023-05-08T05:58:56.621Z,98945.47
2023-05-08T06:01:59.381Z,98944.22
2023-05-08T06:05:02.038Z,98946.03
2023-05-08T06:08:05.923Z,98936.13
2023-05-08T06:11:09.769Z,98941.13
2023-05-08T06:14:12.368Z,98951.72
2023-05-08T06:17:14.987Z,98945.56
2023-05-08T06:20:17.839Z,98943.25
2023-05-08T06:23:20.551Z,98948.16
2023-05-08T06:26:24.882Z,98949.56
2023-05-08T06:29:27.399Z,98949.47
2023-05-08T06:32:30.097Z,98950.69
2023-05-08T06:35:32.734Z,98951.56
2023-05-08T06:38:35.280Z,98957.38
2023-05-08T06:41:39.166Z,98960.16
2023-05-08T06:44:42.038Z,98953.16
2023-05-08T06:47:44.736Z,98956.69
2023-05-08T06:50:48.133Z,98965.00
2023-05-08T06:53:50.502Z,98960.09
2023-05-08T06:56:55.212Z,98955.72
2023-05-08T06:59:57.772Z,98958.41
2023-05-08T07:03:00.551Z,98955.75
2023-05-08T07:06:03.136Z,98957.75
2023-05-08T07:09:05.869Z,98960.25
2023-05-08T07:12:10.087Z,98961.19
2023-05-08T07:15:24.688Z,98966.47
2023-05-08T07:18:28.807Z,98976.72
2023-05-08T07:21:31.609Z,98962.25
2023-05-08T07:24:34.281Z,98963.44
2023-05-08T07:27:38.474Z,98964.06
2023-05-08T07:30:41.110Z,98967.22
2023-05-08T07:33:43.887Z,98970.28
2023-05-08T07:36:46.775Z,98973.63
2023-05-08T07:39:49.352Z,98969.06
2023-05-08T07:42:53.261Z,98968.41
2023-05-08T07:45:56.022Z,98975.88
2023-05-08T07:48:58.719Z,98982.78
2023-05-08T07:52:01.275Z,98983.69
2023-05-08T07:55:04.224Z,98985.66
2023-05-08T07:58:08.189Z,98991.19
2023-05-08T08:01:10.773Z,98983.41
2023-05-08T08:04:15.321Z,98977.88
2023-05-08T08:07:18.137Z,98988.69
2023-05-08T08:10:20.812Z,98983.72
2023-05-08T08:13:24.929Z,98983.59
2023-05-08T08:16:27.881Z,98983.25
2023-05-08T08:19:30.549Z,98991.47
2023-05-08T08:22:33.577Z,98990.81
2023-05-08T08:25:36.365Z,98988.94
2023-05-08T08:28:40.315Z,98991.72
2023-05-08T08:31:43.188Z,98984.03
2023-05-08T08:34:46.285Z,98998.66
2023-05-08T08:37:49.212Z,99000.50
2023-05-08T08:40:53.213Z,98992.50
2023-05-08T08:43:57.490Z,98993.06
2023-05-08T08:47:00.733Z,98998.38
2023-05-08T08:50:03.912Z,99004.56
2023-05-08T08:53:13.171Z,99000.34
2023-05-08T08:56:16.873Z,99005.97
2023-05-08T08:59:21.256Z,98997.69
2023-05-08T09:02:24.732Z,99006.28
2023-05-08T09:05:27.686Z,98997.94
2023-05-08T09:08:30.515Z,98994.66
2023-05-08T09:11:33.460Z,98997.16
2023-05-08T09:14:37.735Z,99005.78
2023-05-08T09:17:40.730Z,99000.88
2023-05-08T09:20:43.346Z,99003.44
2023-05-08T09:23:55.920Z,99000.94
2023-05-08T09:26:58.551Z,99003.97
2023-05-08T09:30:04.587Z,98996.69
2023-05-08T09:33:07.548Z,98996.94
2023-05-08T09:36:25.962Z,99004.09
2023-05-08T09:39:28.559Z,98993.81
2023-05-08T09:42:38.814Z,99014.19
2023-05-08T09:45:42.970Z,99010.78
2023-05-08T09:48:46.558Z,99011.06
2023-05-08T09:51:58.546Z,99001.97
2023-05-08T09:55:03.004Z,99006.72
2023-05-08T09:58:05.528Z,99012.59
2023-05-08T10:01:10.639Z,99006.25
2023-05-08T10:04:13.297Z,99018.16
2023-05-08T10:07:16.438Z,99011.06
2023-05-08T10:10:25.374Z,98997.81
2023-05-08T10:13:28.434Z,99005.63
2023-05-08T10:16:38.545Z,99011.72
2023-05-08T10:19:46.057Z,99007.09
2023-05-08T10:22:49.978Z,99014.41
2023-05-08T10:25:55.123Z,99016.94
2023-05-08T10:28:59.246Z,99016.34
2023-05-08T10:32:04.564Z,99002.31
2023-05-08T10:35:10.245Z,99011.25
2023-05-08T10:38:13.759Z,99004.66
2023-05-08T10:41:16.805Z,99005.81
2023-05-08T10:44:20.559Z,99002.72
2023-05-08T10:47:29.133Z,99003.50
2023-05-08T10:50:43.761Z,99000.34
2023-05-08T10:53:52.307Z,98993.59
2023-05-08T10:57:09.084Z,99000.38
2023-05-08T11:00:12.787Z,98995.91
2023-05-08T11:03:30.778Z,98999.38
2023-05-08T11:06:46.563Z,98997.00
2023-05-08T11:09:49.351Z,98994.97
2023-05-08T11:12:52.764Z,98994.28
2023-05-08T11:15:55.627Z,98987.09
2023-05-08T11:19:18.658Z,98995.13
2023-05-08T11:22:26.817Z,98991.59
2023-05-08T11:25:43.412Z,98995.16
2023-05-08T11:28:57.665Z,98986.50
2023-05-08T11:32:00.562Z,98988.78
2023-05-08T11:35:07.016Z,98986.66
2023-05-08T11:38:15.332Z,98980.22
2023-05-08T11:41:22.769Z,98983.50
2023-05-08T11:44:26.868Z,98984.88
2023-05-08T11:47:33.813Z,98977.81
2023-05-08T11:50:37.886Z,98978.63
2023-05-08T11:53:40.884Z,98974.56
2023-05-08T11:56:45.141Z,98976.84
2023-05-08T11:59:51.163Z,98975.63
2023-05-08T12:02:54.074Z,98972.88
2023-05-08T12:05:59.668Z,98976.41
2023-05-08T12:09:04.881Z,98984.56
2023-05-08T12:12:07.879Z,98970.88
2023-05-08T12:15:11.911Z,98965.03
2023-05-08T12:18:14.779Z,98971.78
2023-05-08T12:21:18.568Z,98966.28
2023-05-08T12:24:23.740Z,98952.78
2023-05-08T12:27:26.750Z,98965.19
2023-05-08T12:30:29.594Z,98965.59
2023-05-08T12:33:32.435Z,98966.16
2023-05-08T12:36:37.798Z,98959.50
2023-05-08T12:39:45.415Z,98959.63
2023-05-08T12:42:50.808Z,98953.72
2023-05-08T12:45:53.527Z,98956.03
2023-05-08T12:49:02.568Z,98956.28
2023-05-08T12:52:07.860Z,98952.50
2023-05-08T12:55:24.593Z,98945.28
2023-05-08T12:58:28.925Z,98943.19
2023-05-08T13:01:31.828Z,98958.56
2023-05-08T13:04:38.016Z,98951.69
2023-05-08T13:07:42.650Z,98953.50
2023-05-08T13:10:49.070Z,98946.38
2023-05-08T13:13:51.667Z,98939.72
2023-05-08T13:16:54.485Z,98933.31
2023-05-08T13:19:56.912Z,98939.38
2023-05-08T13:23:00.991Z,98931.00
2023-05-08T13:26:04.115Z,98935.47
2023-05-08T13:29:07.170Z,98943.19
2023-05-08T13:32:09.898Z,98935.13
2023-05-08T13:35:12.660Z,98927.69
2023-05-08T13:38:16.900Z,98927.78
2023-05-08T13:41:19.364Z,98926.56
2023-05-08T13:44:21.941Z,98924.81
2023-05-08T13:47:24.567Z,98912.34
2023-05-08T13:50:27.201Z,98906.03
2023-05-08T13:53:31.105Z,98898.81
2023-05-08T13:56:34.223Z,98904.41
2023-05-08T13:59:36.976Z,98899.13
2023-05-08T14:02:39.558Z,98908.41
2023-05-08T14:05:42.207Z,98909.59
2023-05-08T14:08:49.608Z,98904.03
2023-05-08T14:11:53.765Z,98911.22
2023-05-08T14:14:56.492Z,98912.00
2023-05-08T14:17:59.113Z,98914.78
2023-05-08T14:21:01.829Z,98908.28
2023-05-08T14:24:06.736Z,98913.78
2023-05-08T14:27:09.417Z,98907.63
2023-05-08T14:30:13.058Z,98901.06
2023-05-08T14:33:17.835Z,98902.63
2023-05-08T14:36:21.773Z,98907.44
2023-05-08T14:39:25.720Z,98908.28
2023-05-08T14:42:28.375Z,98913.56
2023-05-08T14:45:30.877Z,98906.72
2023-05-08T14:48:33.467Z,98903.53
2023-05-08T14:51:35.970Z,98910.56
2023-05-08T14:54:39.912Z,98916.72
2023-05-08T14:57:42.575Z,98919.78
2023-05-08T15:00:45.294Z,98914.44
2023-05-08T15:03:53.100Z,98913.28
2023-05-08T15:06:56.030Z,98910.63
2023-05-08T15:10:01.067Z,98912.84
2023-05-08T15:13:03.952Z,98911.69
2023-05-08T15:16:07.210Z,98909.91
2023-05-08T15:19:10.287Z,98911.50
2023-05-08T15:22:12.897Z,98911.28
2023-05-08T15:25:17.134Z,98912.22
2023-05-08T15:28:19.917Z,98913.44
2023-05-08T15:31:23.436Z,98903.53
2023-05-08T15:34:29.049Z,98908.88
2023-05-08T15:37:36.198Z,98913.09
2023-05-08T15:40:40.210Z,98915.94
2023-05-08T15:43:42.942Z,98918.44
2023-05-08T15:46:45.648Z,98917.03
2023-05-08T15:49:48.196Z,98916.00
2023-05-08T15:52:51.087Z,98910.97
2023-05-08T15:55:55.819Z,98913.72
2023-05-08T15:58:58.336Z,98915.38
2023-05-08T16:02:00.892Z,98915.66
2023-05-08T16:05:03.859Z,98918.91
2023-05-08T16:08:07.542Z,98914.56
2023-05-08T16:11:11.857Z,98921.16
2023-05-08T16:14:14.615Z,98919.03
2023-05-08T16:17:17.439Z,98907.16
2023-05-08T16:20:20.668Z,98905.56
2023-05-08T16:23:23.405Z,98913.59
2023-05-08T16:26:27.571Z,98912.78
2023-05-08T16:29:30.115Z,98924.66
2023-05-08T16:32:32.952Z,98919.03
2023-05-08T16:35:35.731Z,98918.94
2023-05-08T16:38:38.506Z,98920.22
2023-05-08T16:41:42.538Z,98930.50
2023-05-08T16:44:45.119Z,98930.84
2023-05-08T16:47:47.991Z,98923.81
2023-05-08T16:50:50.977Z,98925.41
2023-05-08T16:53:54.522Z,98914.34
2023-05-08T16:56:59.483Z,98920.22
2023-05-08T17:00:02.173Z,98918.06
2023-05-08T17:03:05.048Z,98920.19
2023-05-08T17:06:08.696Z,98919.22
2023-05-08T17:09:11.509Z,98914.66
2023-05-08T17:12:15.817Z,98919.25
2023-05-08T17:15:18.497Z,98925.88
2023-05-08T17:18:21.032Z,98919.13
2023-05-08T17:21:23.726Z,98921.47
2023-05-08T17:24:26.823Z,98927.44
2023-05-08T17:27:30.958Z,98927.69
2023-05-08T17:30:33.866Z,98935.94
2023-05-08T17:33:37.669Z,98933.50
2023-05-08T17:36:40.415Z,98931.44
2023-05-08T17:39:43.004Z,98934.81
2023-05-08T17:42:46.976Z,98935.84
2023-05-08T17:45:49.561Z,98933.94
2023-05-08T17:48:52.206Z,98934.41
2023-05-08T17:51:55.360Z,98946.06
2023-05-08T17:54:58.606Z,98947.91
2023-05-08T17:58:02.604Z,98946.63
2023-05-08T18:01:05.382Z,98950.09
2023-05-08T18:04:08.281Z,98955.94
2023-05-08T18:07:11.501Z,98953.84
2023-05-08T18:10:13.999Z,98954.31
2023-05-08T18:13:18.213Z,98958.59
2023-05-08T18:16:22.108Z,98951.38
2023-05-08T18:19:24.921Z,98943.88
2023-05-08T18:25:30.454Z,98947.38
2023-05-08T18:28:36.082Z,98946.56
2023-05-08T18:31:38.704Z,98944.38
2023-05-08T18:34:41.404Z,98953.69
2023-05-08T18:37:43.983Z,98955.09
2023-05-08T18:40:46.561Z,98956.16
2023-05-08T18:43:50.669Z,98951.84
2023-05-08T18:46:53.351Z,98954.09
2023-05-08T18:49:57.766Z,98950.28
2023-05-08T18:53:00.600Z,98946.50
2023-05-08T18:56:04.232Z,98959.09
2023-05-08T18:59:08.849Z,98952.97
2023-05-08T19:02:11.651Z,98958.63
2023-05-08T19:05:14.928Z,98966.94
2023-05-08T19:08:17.593Z,98963.53
2023-05-08T19:11:20.330Z,98966.94
2023-05-08T19:14:24.240Z,98965.03
2023-05-08T19:17:27.302Z,98966.19
2023-05-08T19:20:30.132Z,98965.13
2023-05-08T19:23:32.650Z,98969.03
2023-05-08T19:26:35.504Z,98959.16
2023-05-08T19:29:39.440Z,98965.66
2023-05-08T19:32:41.978Z,98959.84
2023-05-08T19:35:44.800Z,98961.63
2023-05-08T19:38:47.266Z,98954.94
2023-05-08T19:41:50.420Z,98950.84
2023-05-08T19:44:54.786Z,98960.16
2023-05-08T19:47:57.546Z,98952.31
2023-05-08T19:51:06.431Z,98957.25
2023-05-08T19:54:08.922Z,98957.88
2023-05-08T19:57:11.595Z,98956.75
2023-05-08T20:00:16.214Z,98951.47
2023-05-08T20:03:19.283Z,98955.16
2023-05-08T20:06:22.174Z,98951.34
2023-05-08T20:09:24.727Z,98951.66
2023-05-08T20:12:27.315Z,98957.09
2023-05-08T20:15:31.337Z,98950.38
2023-05-08T20:18:34.944Z,98956.69
2023-05-08T20:21:37.493Z,98958.94
2023-05-08T20:24:40.021Z,98959.63
2023-05-08T20:27:43.186Z,98965.13
2023-05-08T20:30:47.088Z,98957.25
2023-05-08T20:33:49.730Z,98968.53
2023-05-08T20:36:52.268Z,98957.66
2023-05-08T20:39:54.888Z,98958.56
2023-05-08T20:42:57.582Z,98961.78
2023-05-08T20:46:01.534Z,98969.03
2023-05-08T20:49:04.263Z,98966.88
2023-05-08T20:52:07.066Z,98964.69
2023-05-08T20:55:10.403Z,98956.09
2023-05-08T20:58:13.227Z,98954.84
2023-05-08T21:01:19.216Z,98953.56
2023-05-08T21:04:23.345Z,98960.34
2023-05-08T21:07:25.955Z,98952.69
2023-05-08T21:10:30.567Z,98950.38
2023-05-08T21:13:33.290Z,98943.84
2023-05-08T21:16:37.530Z,98933.88
2023-05-08T21:19:40.280Z,98935.69
2023-05-08T21:22:42.834Z,98935.94
2023-05-08T21:25:46.618Z,98944.41
2023-05-08T21:28:49.172Z,98939.00
2023-05-08T21:31:53.529Z,98933.41
2023-05-08T21:34:56.263Z,98934.19
2023-05-08T21:37:58.938Z,98935.22
2023-05-08T21:41:06.504Z,98931.69
2023-05-08T21:44:11.664Z,98936.41
2023-05-08T21:47:15.546Z,98934.31
2023-05-08T21:50:18.191Z,98934.53
2023-05-08T21:53:20.880Z,98926.97
2023-05-08T21:56:23.690Z,98925.13
2023-05-08T21:59:26.430Z,98928.69
2023-05-08T22:02:30.734Z,98934.56
2023-05-08T22:05:33.414Z,98944.41
2023-05-08T22:08:35.957Z,98932.34
2023-05-08T22:11:38.746Z,98944.22
2023-05-08T22:14:41.283Z,98939.06
2023-05-08T22:17:45.689Z,98940.84
2023-05-08T22:20:48.248Z,98940.06
2023-05-08T22:23:50.736Z,98938.81
2023-05-08T22:26:53.304Z,98932.03
2023-05-08T22:29:55.819Z,98932.03
2023-05-08T22:33:00.176Z,98923.53
2023-05-08T22:36:03.025Z,98929.16
2023-05-08T22:39:07.032Z,98926.25
2023-05-08T22:42:09.766Z,98931.41
2023-05-08T22:45:13.127Z,98912.81
2023-05-08T22:48:17.745Z,98916.63
2023-05-08T22:51:20.765Z,98911.91
2023-05-08T22:54:23.356Z,98911.22
2023-05-08T22:57:25.923Z,98913.72
2023-05-08T23:00:28.459Z,98903.88
2023-05-08T23:03:32.587Z,98900.22
2023-05-08T23:06:35.972Z,98888.06
2023-05-08T23:09:38.418Z,98882.16
2023-05-08T23:12:40.961Z,98864.63
2023-05-08T23:15:43.450Z,98868.53
2023-05-08T23:18:47.299Z,98867.50
2023-05-08T23:21:49.836Z,98860.13
2023-05-08T23:24:52.507Z,98861.75
2023-05-08T23:27:55.031Z,98854.72
2023-05-08T23:30:57.667Z,98857.13
2023-05-08T23:34:01.612Z,98850.47
2023-05-08T23:37:04.400Z,98855.88
2023-05-08T23:40:08.754Z,98849.81
2023-05-08T23:43:11.333Z,98848.81
2023-05-08T23:46:14.047Z,98846.19
2023-05-08T23:49:17.961Z,98845.75
2023-05-08T23:52:21.130Z,98841.84
2023-05-08T23:55:23.679Z,98848.41
2023-05-08T23:58:26.251Z,98834.09
